createdAt,value
2019-04-20T00:02:07.417Z,15.80
2019-04-20T00:04:35.794Z,15.80
2019-04-20T00:07:08.009Z,15.80
2019-04-20T00:09:40.044Z,15.70
2019-04-20T00:12:18.915Z,15.60
2019-04-20T00:14:43.968Z,15.50
2019-04-20T00:17:14.244Z,15.40
2019-04-20T00:19:49.067Z,15.40
2019-04-20T00:22:39.301Z,15.30
2019-04-20T00:25:19.142Z,15.20
2019-04-20T00:28:21.914Z,15.20
2019-04-20T00:30:54.363Z,15.10
2019-04-20T00:33:24.275Z,15.00
2019-04-20T00:35:40.236Z,14.90
2019-04-20T00:38:11.631Z,14.90
2019-04-20T00:40:43.345Z,14.90
2019-04-20T00:43:22.064Z,14.80
2019-04-20T00:45:51.969Z,14.80
2019-04-20T00:48:28.166Z,14.80
2019-04-20T00:51:06.822Z,14.70
2019-04-20T00:53:30.319Z,14.70
2019-04-20T00:55:54.934Z,14.60
2019-04-20T00:58:33.590Z,14.60
2019-04-20T01:01:21.388Z,14.60
2019-04-20T01:03:43.228Z,14.50
2019-04-20T01:06:31.902Z,14.50
2019-04-20T01:09:08.260Z,14.40
2019-04-20T01:11:42.260Z,14.40
2019-04-20T01:14:14.076Z,14.30
2019-04-20T01:16:50.343Z,14.20
2019-04-20T01:19:15.849Z,14.10
2019-04-20T01:21:52.586Z,14.10
2019-04-20T01:24:26.291Z,14.00
2019-04-20T01:26:55.163Z,13.90
2019-04-20T01:29:32.413Z,13.80
2019-04-20T01:32:09.014Z,13.70
2019-04-20T01:34:38.943Z,13.60
2019-04-20T01:37:14.481Z,13.50
2019-04-20T01:39:38.119Z,13.50
2019-04-20T01:42:02.514Z,13.40
2019-04-20T01:44:38.794Z,13.40
2019-04-20T01:47:06.640Z,13.30
2019-04-20T01:49:38.443Z,13.20
2019-04-20T01:52:17.326Z,13.10
2019-04-20T01:54:56.439Z,13.00
2019-04-20T01:57:33.104Z,13.00
2019-04-20T02:00:14.441Z,12.90
2019-04-20T02:02:53.892Z,12.90
2019-04-20T02:05:24.725Z,12.80
2019-04-20T02:07:54.197Z,12.70
2019-04-20T02:10:31.899Z,12.70
2019-04-20T02:12:59.854Z,12.60
2019-04-20T02:15:37.519Z,12.50
2019-04-20T02:18:16.462Z,12.50
2019-04-20T02:20:50.092Z,12.40
2019-04-20T02:23:19.557Z,12.40
2019-04-20T02:25:35.808Z,12.30
2019-04-20T02:28:22.992Z,12.20
2019-04-20T02:31:18.298Z,12.20
2019-04-20T02:33:47.249Z,12.10
2019-04-20T02:36:31.642Z,12.10
2019-04-20T02:41:49.704Z,12.00
2019-04-20T02:46:40.851Z,11.80
2019-04-20T02:49:19.720Z,11.70
2019-04-20T02:51:47.035Z,11.70
2019-04-20T02:59:54.301Z,11.40
2019-04-20T03:01:43.613Z,11.30
2019-04-20T03:03:59.407Z,11.20
2019-04-20T03:06:37.541Z,11.10
2019-04-20T03:09:21.430Z,11.10
2019-04-20T03:11:59.713Z,11.00
2019-04-20T03:14:19.136Z,10.90
2019-04-20T03:16:50.739Z,10.90
2019-04-20T03:19:20.650Z,10.70
2019-04-20T03:22:04.102Z,10.60
2019-04-20T03:24:37.415Z,10.40
2019-04-20T03:27:19.604Z,10.30
2019-04-20T03:30:04.246Z,10.20
2019-04-20T03:35:24.984Z,10.00
2019-04-20T03:37:55.395Z,9.90
2019-04-20T03:40:21.322Z,9.80
2019-04-20T03:42:37.071Z,9.70
2019-04-20T03:45:13.187Z,9.60
2019-04-20T03:47:54.820Z,9.50
2019-04-20T03:50:36.388Z,9.40
2019-04-20T03:53:09.925Z,9.40
2019-04-20T03:55:54.056Z,9.40
2019-04-20T03:58:50.369Z,9.40
2019-04-20T04:01:57.154Z,9.30
2019-04-20T04:04:10.641Z,9.20
2019-04-20T04:06:33.301Z,9.20
2019-04-20T04:09:07.317Z,9.10
2019-04-20T04:11:46.107Z,9.00
2019-04-20T04:13:59.121Z,9.00
2019-04-20T04:16:37.242Z,8.90
2019-04-20T04:19:11.898Z,8.90
2019-04-20T04:21:49.670Z,8.80
2019-04-20T04:24:17.006Z,8.80
2019-04-20T04:26:51.198Z,8.80
2019-04-20T04:29:34.526Z,8.70
2019-04-20T04:32:06.723Z,8.70
2019-04-20T04:34:34.933Z,8.70
2019-04-20T04:37:03.271Z,8.70
2019-04-20T04:39:41.812Z,8.70
2019-04-20T04:42:19.232Z,8.60
2019-04-20T04:44:34.324Z,8.70
2019-04-20T04:46:58.517Z,8.60
2019-04-20T04:49:31.441Z,8.60
2019-04-20T04:52:04.091Z,8.60
2019-04-20T04:54:37.673Z,8.60
2019-04-20T04:57:01.138Z,8.60
2019-04-20T04:59:31.719Z,8.60
2019-04-20T05:02:03.329Z,8.70
2019-04-20T05:05:32.393Z,8.60
2019-04-20T05:07:58.431Z,8.60
2019-04-20T05:10:15.993Z,8.70
2019-04-20T05:12:48.202Z,8.70
2019-04-20T05:15:32.404Z,8.80
2019-04-20T05:18:17.244Z,8.80
2019-04-20T05:20:46.810Z,8.80
2019-04-20T05:23:37.759Z,8.90
2019-04-20T05:26:51.201Z,8.90
2019-04-20T05:29:08.542Z,9.00
2019-04-20T05:31:40.410Z,9.10
2019-04-20T05:34:25.562Z,9.20
2019-04-20T05:37:12.686Z,9.20
2019-04-20T05:39:32.964Z,9.30
2019-04-20T05:41:57.162Z,9.40
2019-04-20T05:44:44.359Z,9.50
2019-04-20T05:47:15.815Z,9.60
2019-04-20T05:49:41.523Z,9.70
2019-04-20T05:52:31.509Z,9.80
2019-04-20T05:54:53.524Z,9.90
2019-04-20T05:57:25.071Z,10.00
2019-04-20T06:00:00.609Z,10.10
2019-04-20T06:02:30.588Z,10.30
2019-04-20T06:05:05.374Z,10.40
2019-04-20T06:07:29.625Z,10.50
2019-04-20T06:10:07.806Z,10.60
2019-04-20T06:12:35.931Z,10.80
2019-04-20T06:15:11.680Z,10.90
2019-04-20T06:18:12.155Z,11.20
2019-04-20T06:20:50.360Z,11.60
2019-04-20T06:26:26.853Z,12.20
2019-04-20T06:28:37.733Z,12.40
2019-04-20T06:31:16.428Z,12.60
2019-04-20T06:34:30.257Z,12.70
2019-04-20T06:44:34.351Z,13.20
2019-04-20T06:49:38.101Z,13.40
2019-04-20T06:52:36.996Z,13.50
2019-04-20T06:55:14.330Z,13.60
2019-04-20T06:58:01.199Z,13.80
2019-04-20T07:00:30.553Z,13.90
2019-04-20T07:03:11.993Z,14.00
2019-04-20T07:08:06.284Z,14.20
2019-04-20T07:10:34.430Z,14.30
2019-04-20T07:12:55.649Z,14.50
2019-04-20T07:15:33.920Z,14.60
2019-04-20T07:18:17.254Z,14.70
2019-04-20T07:21:05.841Z,14.80
2019-04-20T07:23:43.721Z,15.00
2019-04-20T07:26:21.140Z,15.10
2019-04-20T07:28:51.216Z,15.20
2019-04-20T07:31:17.277Z,15.40
2019-04-20T07:33:49.442Z,15.50
2019-04-20T07:36:30.568Z,15.60
2019-04-20T07:38:55.258Z,15.70
2019-04-20T07:41:33.041Z,15.80
2019-04-20T07:44:04.687Z,16.00
2019-04-20T07:46:41.104Z,16.10
2019-04-20T07:49:01.353Z,16.30
2019-04-20T07:51:18.247Z,16.40
2019-04-20T07:54:10.765Z,16.60
2019-04-20T07:56:37.258Z,16.70
2019-04-20T07:58:53.472Z,16.90
2019-04-20T08:02:11.996Z,17.00
2019-04-20T08:04:52.371Z,17.10
2019-04-20T08:07:10.828Z,17.30
2019-04-20T08:09:47.601Z,17.50
2019-04-20T08:12:49.943Z,17.60
2019-04-20T08:15:34.037Z,17.70
2019-04-20T08:20:19.972Z,18.00
2019-04-20T08:23:00.120Z,18.20
2019-04-20T08:25:20.423Z,18.30
2019-04-20T08:27:59.139Z,18.40
2019-04-20T08:31:19.584Z,18.60
2019-04-20T08:34:06.235Z,18.70
2019-04-20T08:36:26.915Z,18.80
2019-04-20T08:39:16.978Z,18.90
2019-04-20T08:41:26.760Z,19.00
2019-04-20T08:44:18.665Z,19.20
2019-04-20T08:46:40.322Z,19.20
2019-04-20T08:49:13.215Z,19.30
2019-04-20T08:51:45.093Z,19.40
2019-04-20T08:54:06.845Z,19.50
2019-04-20T08:56:35.119Z,19.60
2019-04-20T08:58:55.072Z,19.70
2019-04-20T09:01:29.092Z,19.80
2019-04-20T09:04:07.732Z,19.90
2019-04-20T09:06:41.990Z,19.90
2019-04-20T09:09:31.852Z,20.00
2019-04-20T09:11:57.665Z,20.20
2019-04-20T09:14:21.691Z,20.30
2019-04-20T09:17:14.085Z,20.40
2019-04-20T09:19:52.859Z,20.40
2019-04-20T09:23:02.137Z,20.50
2019-04-20T09:25:54.529Z,20.60
2019-04-20T09:28:28.550Z,20.50
2019-04-20T09:31:13.242Z,20.70
2019-04-20T09:34:14.493Z,20.70
2019-04-20T09:36:42.034Z,20.80
2019-04-20T09:39:17.775Z,20.90
2019-04-20T09:42:00.717Z,21.10
2019-04-20T09:44:24.551Z,21.20
2019-04-20T09:46:59.201Z,21.30
2019-04-20T09:49:39.963Z,21.40
2019-04-20T09:52:15.668Z,21.50
2019-04-20T09:54:51.337Z,21.70
2019-04-20T09:57:25.525Z,21.70
2019-04-20T09:59:53.714Z,21.70
2019-04-20T10:02:15.814Z,21.80
2019-04-20T10:04:39.791Z,21.90
2019-04-20T10:07:15.872Z,21.90
2019-04-20T10:09:44.938Z,21.90
2019-04-20T10:12:15.703Z,22.00
2019-04-20T10:14:46.866Z,22.00
2019-04-20T10:17:18.098Z,22.10
2019-04-20T10:19:48.675Z,22.20
2019-04-20T10:22:18.906Z,22.30
2019-04-20T10:24:51.829Z,22.40
2019-04-20T10:27:21.418Z,22.50
2019-04-20T10:29:51.732Z,22.60
2019-04-20T10:32:30.933Z,22.60
2019-04-20T10:34:56.750Z,22.80
2019-04-20T10:37:31.607Z,22.90
2019-04-20T10:40:02.896Z,23.10
2019-04-20T10:42:34.300Z,23.30
2019-04-20T10:45:05.925Z,23.50
2019-04-20T10:47:37.085Z,23.60
2019-04-20T10:50:09.125Z,23.80
2019-04-20T10:52:39.650Z,24.00
2019-04-20T10:55:10.455Z,24.10
2019-04-20T10:57:41.744Z,24.30
2019-04-20T11:00:15.568Z,24.60
2019-04-20T11:02:47.609Z,24.80
2019-04-20T11:05:18.125Z,25.00
2019-04-20T11:07:48.488Z,25.20
2019-04-20T11:10:25.297Z,25.30
2019-04-20T11:12:50.816Z,25.60
2019-04-20T11:15:21.295Z,25.70
2019-04-20T11:17:51.703Z,25.90
2019-04-20T11:20:23.213Z,26.00
2019-04-20T11:22:53.808Z,26.20
2019-04-20T11:25:24.332Z,26.40
2019-04-20T11:27:54.673Z,26.40
2019-04-20T11:30:25.863Z,26.60
2019-04-20T11:32:56.204Z,26.70
2019-04-20T11:35:32.633Z,27.00
2019-04-20T11:37:58.534Z,27.10
2019-04-20T11:40:28.832Z,27.20
2019-04-20T11:42:59.583Z,27.40
2019-04-20T11:45:30.938Z,27.50
2019-04-20T11:48:03.207Z,27.70
2019-04-20T11:50:33.685Z,27.80
2019-04-20T11:53:05.353Z,27.90
2019-04-20T11:55:36.268Z,28.10
2019-04-20T11:58:07.986Z,28.40
2019-04-20T12:00:52.208Z,28.50
2019-04-20T12:03:27.355Z,28.60
2019-04-20T12:05:55.339Z,28.80
2019-04-20T12:08:25.001Z,28.90
2019-04-20T12:10:59.551Z,29.00
2019-04-20T12:13:28.878Z,29.20
2019-04-20T12:15:59.490Z,29.30
2019-04-20T12:18:29.839Z,29.30
2019-04-20T12:21:00.852Z,29.40
2019-04-20T12:23:31.400Z,29.50
2019-04-20T12:26:02.037Z,29.70
2019-04-20T12:28:33.614Z,29.80
2019-04-20T12:31:11.503Z,30.00
2019-04-20T12:33:36.732Z,30.00
2019-04-20T12:36:10.120Z,30.20
2019-04-20T12:38:41.332Z,30.30
2019-04-20T12:41:13.163Z,30.40
2019-04-20T12:43:43.846Z,30.40
2019-04-20T12:46:17.039Z,30.40
2019-04-20T12:48:47.310Z,30.40
2019-04-20T12:51:17.930Z,30.50
2019-04-20T12:53:48.770Z,30.60
2019-04-20T12:56:20.304Z,30.70
2019-04-20T12:58:51.654Z,30.90
2019-04-20T13:01:23.961Z,31.20
2019-04-20T13:03:55.333Z,31.40
2019-04-20T13:06:26.013Z,31.50
2019-04-20T13:08:58.878Z,31.70
2019-04-20T13:11:44.384Z,31.80
2019-04-20T13:14:30.574Z,31.90
2019-04-20T13:17:02.079Z,32.00
2019-04-20T13:19:33.297Z,32.20
2019-04-20T13:22:05.157Z,32.30
2019-04-20T13:24:36.975Z,32.40
2019-04-20T13:27:07.411Z,32.50
2019-04-20T13:29:38.374Z,32.60
2019-04-20T13:32:09.729Z,32.80
2019-04-20T13:34:40.353Z,32.80
2019-04-20T13:37:10.926Z,33.00
2019-04-20T13:39:42.663Z,33.10
2019-04-20T13:42:20.274Z,33.20
2019-04-20T13:44:45.232Z,33.40
2019-04-20T13:47:16.830Z,33.70
2019-04-20T13:49:47.351Z,33.80
2019-04-20T13:52:17.560Z,33.80
2019-04-20T13:54:48.015Z,33.80
2019-04-20T13:57:22.132Z,34.00
2019-04-20T13:59:55.858Z,34.00
2019-04-20T14:02:48.852Z,34.00
2019-04-20T14:05:31.107Z,33.90
2019-04-20T14:08:05.282Z,33.80
2019-04-20T14:10:35.596Z,33.80
2019-04-20T14:13:12.128Z,33.40
2019-04-20T14:15:38.118Z,33.40
2019-04-20T14:18:09.030Z,33.40
2019-04-20T14:20:40.294Z,33.30
2019-04-20T14:23:10.660Z,33.40
2019-04-20T14:25:41.057Z,33.40
2019-04-20T14:28:11.444Z,33.40
2019-04-20T14:30:41.774Z,33.30
2019-04-20T14:33:12.873Z,33.40
2019-04-20T14:35:43.276Z,33.40
2019-04-20T14:38:33.917Z,33.40
2019-04-20T14:41:04.408Z,33.40
2019-04-20T14:43:36.379Z,33.70
2019-04-20T14:46:06.694Z,34.10
2019-04-20T14:48:37.015Z,34.60
2019-04-20T14:51:07.714Z,35.30
2019-04-20T14:53:38.172Z,35.80
2019-04-20T14:56:09.555Z,36.50
2019-04-20T14:59:05.283Z,36.90
2019-04-20T15:01:44.971Z,37.30
2019-04-20T15:04:18.623Z,37.70
2019-04-20T15:06:48.583Z,37.80
2019-04-20T15:09:19.214Z,38.00
2019-04-20T15:11:50.709Z,37.90
2019-04-20T15:14:21.078Z,38.00
2019-04-20T15:16:51.331Z,38.00
2019-04-20T15:19:47.616Z,37.90
2019-04-20T15:22:52.226Z,37.70
2019-04-20T15:25:23.357Z,37.50
2019-04-20T15:27:54.495Z,37.10
2019-04-20T15:30:24.889Z,36.70
2019-04-20T15:32:55.133Z,36.40
2019-04-20T15:35:26.308Z,36.10
2019-04-20T15:37:57.298Z,35.70
2019-04-20T15:40:28.927Z,35.20
2019-04-20T15:43:08.335Z,34.80
2019-04-20T15:45:31.471Z,34.40
2019-04-20T15:48:01.901Z,34.10
2019-04-20T15:50:32.227Z,33.60
2019-04-20T15:53:03.967Z,33.20
2019-04-20T15:55:37.955Z,32.90
2019-04-20T15:58:08.436Z,32.60
2019-04-20T16:00:40.405Z,32.30
2019-04-20T16:03:17.309Z,32.10
2019-04-20T16:05:59.019Z,31.80
2019-04-20T16:08:34.637Z,31.60
2019-04-20T16:11:07.177Z,31.30
2019-04-20T16:13:41.956Z,31.20
2019-04-20T16:16:10.077Z,31.00
2019-04-20T16:18:41.079Z,30.90
2019-04-20T16:21:16.133Z,30.80
2019-04-20T16:23:54.889Z,30.80
2019-04-20T16:26:29.641Z,30.70
2019-04-20T16:29:00.072Z,30.70
2019-04-20T16:31:30.887Z,30.70
2019-04-20T16:34:01.270Z,30.60
2019-04-20T16:36:32.443Z,30.60
2019-04-20T16:39:03.697Z,30.50
2019-04-20T16:41:34.039Z,30.50
2019-04-20T16:44:05.054Z,30.30
2019-04-20T16:46:36.327Z,30.20
2019-04-20T16:49:08.294Z,29.90
2019-04-20T16:51:38.951Z,29.70
2019-04-20T16:54:10.104Z,29.50
2019-04-20T16:56:40.561Z,29.30
2019-04-20T16:59:12.220Z,29.10
2019-04-20T17:01:42.862Z,28.90
2019-04-20T17:04:18.584Z,28.70
2019-04-20T17:07:04.125Z,28.50
2019-04-20T17:09:35.638Z,28.30
2019-04-20T17:12:06.057Z,28.10
2019-04-20T17:14:37.742Z,27.90
2019-04-20T17:17:09.670Z,27.70
2019-04-20T17:19:40.105Z,27.50
2019-04-20T17:22:11.586Z,27.30
2019-04-20T17:24:43.118Z,27.20
2019-04-20T17:27:44.914Z,27.10
2019-04-20T17:30:37.929Z,26.90
2019-04-20T17:33:10.348Z,26.70
2019-04-20T17:35:51.396Z,26.50
2019-04-20T17:38:14.263Z,26.40
2019-04-20T17:41:01.486Z,26.20
2019-04-20T17:43:25.404Z,26.10
2019-04-20T17:45:58.199Z,26.00
2019-04-20T17:48:33.363Z,25.80
2019-04-20T17:51:13.079Z,25.70
2019-04-20T17:53:47.383Z,25.60
2019-04-20T17:56:11.964Z,25.50
2019-04-20T17:58:43.796Z,25.30
2019-04-20T18:01:41.218Z,25.20
2019-04-20T18:04:37.019Z,25.00
2019-04-20T18:06:52.639Z,24.80
2019-04-20T18:09:36.784Z,24.60
2019-04-20T18:11:47.310Z,24.60
2019-04-20T18:14:31.517Z,24.40
2019-04-20T18:17:10.487Z,24.20
2019-04-20T18:19:31.767Z,24.00
2019-04-20T18:22:05.777Z,23.70
2019-04-20T18:25:01.949Z,23.50
2019-04-20T18:27:36.215Z,23.20
2019-04-20T18:29:58.871Z,23.00
2019-04-20T18:32:23.629Z,22.80
2019-04-20T18:35:01.445Z,22.50
2019-04-20T18:37:32.686Z,22.30
2019-04-20T18:40:10.699Z,22.10
2019-04-20T18:42:40.396Z,22.00
2019-04-20T18:45:26.865Z,21.90
2019-04-20T18:48:04.359Z,21.70
2019-04-20T18:50:22.144Z,21.50
2019-04-20T18:52:45.420Z,21.40
2019-04-20T18:55:22.324Z,21.20
2019-04-20T18:57:49.100Z,21.10
2019-04-20T19:00:27.957Z,21.00
2019-04-20T19:02:56.090Z,20.80
2019-04-20T19:05:26.049Z,20.70
2019-04-20T19:08:02.844Z,20.60
2019-04-20T19:10:33.062Z,20.40
2019-04-20T19:13:06.686Z,20.40
2019-04-20T19:16:06.912Z,20.20
2019-04-20T19:19:00.580Z,20.00
2019-04-20T19:21:19.226Z,19.80
2019-04-20T19:23:58.041Z,19.70
2019-04-20T19:26:23.304Z,19.50
2019-04-20T19:28:56.475Z,19.30
2019-04-20T19:31:42.625Z,19.10
2019-04-20T19:34:15.262Z,18.90
2019-04-20T19:36:36.766Z,18.80
2019-04-20T19:39:19.353Z,18.60
2019-04-20T19:41:42.892Z,18.50
2019-04-20T19:44:16.091Z,18.40
2019-04-20T19:47:05.287Z,18.40
2019-04-20T19:49:24.378Z,18.40
2019-04-20T19:52:13.607Z,18.50
2019-04-20T19:54:34.501Z,18.40
2019-04-20T19:57:01.312Z,18.40
2019-04-20T19:59:25.969Z,18.40
2019-04-20T20:01:49.887Z,18.40
2019-04-20T20:04:20.107Z,18.40
2019-04-20T20:06:56.203Z,18.40
2019-04-20T20:09:22.229Z,18.30
2019-04-20T20:11:57.191Z,18.30
2019-04-20T20:14:32.338Z,18.30
2019-04-20T20:17:13.787Z,18.30
2019-04-20T20:19:45.952Z,18.20
2019-04-20T20:22:14.901Z,18.10
2019-04-20T20:24:33.381Z,18.10
2019-04-20T20:27:11.645Z,18.00
2019-04-20T20:29:41.413Z,18.00
2019-04-20T20:32:17.728Z,18.00
2019-04-20T20:34:44.139Z,17.90
2019-04-20T20:37:18.110Z,17.80
2019-04-20T20:39:53.848Z,17.70
2019-04-20T20:42:30.882Z,17.60
2019-04-20T20:44:55.121Z,17.50
2019-04-20T20:47:41.938Z,17.40
2019-04-20T20:50:17.396Z,17.40
2019-04-20T20:52:36.881Z,17.30
2019-04-20T20:55:06.087Z,17.30
2019-04-20T20:57:42.430Z,17.30
2019-04-20T21:00:07.902Z,17.30
2019-04-20T21:02:43.487Z,17.20
2019-04-20T21:05:04.275Z,17.10
2019-04-20T21:07:34.631Z,17.10
2019-04-20T21:10:06.258Z,17.10
2019-04-20T21:12:43.562Z,17.00
2019-04-20T21:15:16.327Z,16.90
2019-04-20T21:18:05.505Z,16.90
2019-04-20T21:20:33.248Z,16.80
2019-04-20T21:23:17.531Z,16.90
2019-04-20T21:25:46.007Z,16.80
2019-04-20T21:28:13.098Z,16.80
2019-04-20T21:30:47.140Z,16.80
2019-04-20T21:33:16.766Z,16.80
2019-04-20T21:35:50.513Z,16.80
2019-04-20T21:38:21.800Z,16.80
2019-04-20T21:41:02.212Z,16.80
2019-04-20T21:43:29.780Z,16.80
2019-04-20T21:45:59.768Z,16.80
2019-04-20T21:48:44.120Z,16.80
2019-04-20T21:51:15.192Z,16.70
2019-04-20T21:53:33.686Z,16.70
2019-04-20T21:56:03.870Z,16.60
2019-04-20T21:58:41.587Z,16.50
2019-04-20T22:01:16.310Z,16.40
2019-04-20T22:03:40.426Z,16.30
2019-04-20T22:06:11.068Z,16.20
2019-04-20T22:08:49.320Z,16.20
2019-04-20T22:11:13.633Z,16.10
2019-04-20T22:13:45.857Z,16.10
2019-04-20T22:16:18.144Z,16.00
2019-04-20T22:18:54.377Z,15.90
2019-04-20T22:21:26.473Z,15.90
2019-04-20T22:24:05.711Z,15.80
2019-04-20T22:26:32.146Z,15.70
2019-04-20T22:28:56.342Z,15.70
2019-04-20T22:31:26.516Z,15.60
2019-04-20T22:34:02.262Z,15.50
2019-04-20T22:36:34.343Z,15.50
2019-04-20T22:39:15.667Z,15.40
2019-04-20T22:41:59.063Z,15.40
2019-04-20T22:44:26.664Z,15.30
2019-04-20T22:46:56.354Z,15.30
2019-04-20T22:49:43.037Z,15.30
2019-04-20T22:52:13.193Z,15.30
2019-04-20T22:54:44.949Z,15.30
2019-04-20T22:57:12.667Z,15.20
2019-04-20T22:59:44.740Z,15.20
2019-04-20T23:02:09.467Z,15.20
2019-04-20T23:04:40.187Z,15.20
2019-04-20T23:07:10.951Z,15.20
2019-04-20T23:09:48.653Z,15.10
2019-04-20T23:12:17.798Z,15.00
2019-04-20T23:14:46.541Z,15.00
2019-04-20T23:17:26.293Z,15.10
2019-04-20T23:19:54.201Z,15.10
2019-04-20T23:22:21.136Z,15.10
2019-04-20T23:24:51.446Z,15.10
2019-04-20T23:27:26.324Z,15.10
2019-04-20T23:29:53.629Z,15.00
2019-04-20T23:32:26.871Z,15.00
2019-04-20T23:35:03.497Z,15.00
2019-04-20T23:37:32.096Z,14.90
2019-04-20T23:40:00.443Z,14.90
2019-04-20T23:42:40.841Z,14.90
2019-04-20T23:45:41.267Z,14.80
2019-04-20T23:48:14.299Z,14.70
2019-04-20T23:50:58.249Z,14.70
2019-04-20T23:53:35.415Z,14.50
2019-04-20T23:55:49.609Z,14.40
2019-04-20T23:58:21.161Z,14.30
